sensor_id;sensor_type;location;lat;lon;timestamp;temperature;humidity
38941;DHT22;43236;47.208;7.518;2022-07-23T00:00:02;24.70;99.90
38941;DHT22;43236;47.208;7.518;2022-07-23T00:02:50;24.70;99.90
38941;DHT22;43236;47.208;7.518;2022-07-23T00:05:37;24.60;99.90
38941;DHT22;43236;47.208;7.518;2022-07-23T00:08:24;24.60;99.90
38941;DHT22;43236;47.208;7.518;2022-07-23T00:11:12;24.70;99.90
38941;DHT22;43236;47.208;7.518;2022-07-23T00:13:59;24.60;99.90
38941;DHT22;43236;47.208;7.518;2022-07-23T00:16:46;24.60;99.90
38941;DHT22;43236;47.208;7.518;2022-07-23T00:19:34;24.50;99.90
38941;DHT22;43236;47.208;7.518;2022-07-23T00:22:21;24.50;99.90
38941;DHT22;43236;47.208;7.518;2022-07-23T00:25:08;24.50;99.90
38941;DHT22;43236;47.208;7.518;2022-07-23T00:27:56;24.50;99.90
38941;DHT22;43236;47.208;7.518;2022-07-23T00:30:43;24.50;99.90
38941;DHT22;43236;47.208;7.518;2022-07-23T00:33:30;24.40;99.90
38941;DHT22;43236;47.208;7.518;2022-07-23T00:36:19;24.40;99.90
38941;DHT22;43236;47.208;7.518;2022-07-23T00:39:06;24.40;99.90
38941;DHT22;43236;47.208;7.518;2022-07-23T00:41:53;24.40;99.90
38941;DHT22;43236;47.208;7.518;2022-07-23T00:44:40;24.40;99.90
38941;DHT22;43236;47.208;7.518;2022-07-23T00:47:28;24.40;99.90
38941;DHT22;43236;47.208;7.518;2022-07-23T00:50:15;24.30;99.90
38941;DHT22;43236;47.208;7.518;2022-07-23T00:53:04;24.30;99.90
38941;DHT22;43236;47.208;7.518;2022-07-23T00:55:51;24.30;99.90
38941;DHT22;43236;47.208;7.518;2022-07-23T00:58:39;24.40;99.90
38941;DHT22;43236;47.208;7.518;2022-07-23T01:01:28;24.30;99.90
38941;DHT22;43236;47.208;7.518;2022-07-23T01:04:16;24.20;99.90
38941;DHT22;43236;47.208;7.518;2022-07-23T01:07:03;24.20;99.90
38941;DHT22;43236;47.208;7.518;2022-07-23T01:09:52;24.20;99.90
38941;DHT22;43236;47.208;7.518;2022-07-23T01:12:41;24.20;99.90
38941;DHT22;43236;47.208;7.518;2022-07-23T01:15:28;24.20;99.90
38941;DHT22;43236;47.208;7.518;2022-07-23T01:18:15;24.10;99.90
38941;DHT22;43236;47.208;7.518;2022-07-23T01:21:03;24.10;99.90
38941;DHT22;43236;47.208;7.518;2022-07-23T01:23:51;24.10;99.90
38941;DHT22;43236;47.208;7.518;2022-07-23T01:26:41;24.10;99.90
38941;DHT22;43236;47.208;7.518;2022-07-23T01:29:28;24.10;99.90
38941;DHT22;43236;47.208;7.518;2022-07-23T01:32:15;24.00;99.90
38941;DHT22;43236;47.208;7.518;2022-07-23T01:35:03;24.00;99.90
38941;DHT22;43236;47.208;7.518;2022-07-23T01:37:50;24.00;99.90
38941;DHT22;43236;47.208;7.518;2022-07-23T01:40:40;24.00;99.90
38941;DHT22;43236;47.208;7.518;2022-07-23T01:43:27;23.90;99.90
38941;DHT22;43236;47.208;7.518;2022-07-23T01:46:14;23.90;99.90
38941;DHT22;43236;47.208;7.518;2022-07-23T01:49:01;24.00;99.90
38941;DHT22;43236;47.208;7.518;2022-07-23T01:51:48;24.00;99.90
38941;DHT22;43236;47.208;7.518;2022-07-23T01:54:47;24.00;99.90
38941;DHT22;43236;47.208;7.518;2022-07-23T01:57:36;24.00;99.90
38941;DHT22;43236;47.208;7.518;2022-07-23T02:00:23;24.00;99.90
38941;DHT22;43236;47.208;7.518;2022-07-23T02:03:10;24.00;99.90
38941;DHT22;43236;47.208;7.518;2022-07-23T02:05:57;24.00;99.90
38941;DHT22;43236;47.208;7.518;2022-07-23T02:08:44;24.00;99.90
38941;DHT22;43236;47.208;7.518;2022-07-23T02:11:32;24.00;99.90
38941;DHT22;43236;47.208;7.518;2022-07-23T02:14:21;24.00;99.90
38941;DHT22;43236;47.208;7.518;2022-07-23T02:17:08;24.00;99.90
38941;DHT22;43236;47.208;7.518;2022-07-23T02:19:55;24.00;99.90
38941;DHT22;43236;47.208;7.518;2022-07-23T02:22:42;24.00;99.90
38941;DHT22;43236;47.208;7.518;2022-07-23T02:25:29;24.00;99.90
38941;DHT22;43236;47.208;7.518;2022-07-23T02:28:16;24.00;99.90
38941;DHT22;43236;47.208;7.518;2022-07-23T02:31:05;24.00;99.90
38941;DHT22;43236;47.208;7.518;2022-07-23T02:33:52;24.00;99.90
38941;DHT22;43236;47.208;7.518;2022-07-23T02:36:39;24.00;99.90
38941;DHT22;43236;47.208;7.518;2022-07-23T02:39:26;23.90;99.90
38941;DHT22;43236;47.208;7.518;2022-07-23T02:42:13;23.90;99.90
38941;DHT22;43236;47.208;7.518;2022-07-23T02:45:01;23.90;99.90
38941;DHT22;43236;47.208;7.518;2022-07-23T02:47:49;23.80;99.90
38941;DHT22;43236;47.208;7.518;2022-07-23T02:50:36;23.70;99.90
38941;DHT22;43236;47.208;7.518;2022-07-23T02:53:23;23.70;99.90
38941;DHT22;43236;47.208;7.518;2022-07-23T02:56:10;23.70;99.90
38941;DHT22;43236;47.208;7.518;2022-07-23T02:58:57;23.70;99.90
38941;DHT22;43236;47.208;7.518;2022-07-23T03:01:45;23.70;99.90
38941;DHT22;43236;47.208;7.518;2022-07-23T03:04:33;23.70;99.90
38941;DHT22;43236;47.208;7.518;2022-07-23T03:07:20;23.70;99.90
38941;DHT22;43236;47.208;7.518;2022-07-23T03:10:08;23.80;99.90
38941;DHT22;43236;47.208;7.518;2022-07-23T03:12:55;23.80;99.90
38941;DHT22;43236;47.208;7.518;2022-07-23T03:15:42;23.70;99.90
38941;DHT22;43236;47.208;7.518;2022-07-23T03:18:29;23.70;99.90
38941;DHT22;43236;47.208;7.518;2022-07-23T03:21:18;23.70;99.90
38941;DHT22;43236;47.208;7.518;2022-07-23T03:24:05;23.70;99.90
38941;DHT22;43236;47.208;7.518;2022-07-23T03:26:53;23.70;99.90
38941;DHT22;43236;47.208;7.518;2022-07-23T03:29:40;23.70;99.90
38941;DHT22;43236;47.208;7.518;2022-07-23T03:32:27;23.70;99.90
38941;DHT22;43236;47.208;7.518;2022-07-23T03:35:15;23.70;99.90
38941;DHT22;43236;47.208;7.518;2022-07-23T03:38:03;23.70;99.90
38941;DHT22;43236;47.208;7.518;2022-07-23T03:40:50;23.70;99.90
38941;DHT22;43236;47.208;7.518;2022-07-23T03:43:37;23.70;99.90
38941;DHT22;43236;47.208;7.518;2022-07-23T03:46:24;23.70;99.90
38941;DHT22;43236;47.208;7.518;2022-07-23T03:49:11;23.70;99.90
38941;DHT22;43236;47.208;7.518;2022-07-23T03:51:58;23.70;99.90
38941;DHT22;43236;47.208;7.518;2022-07-23T03:54:47;23.70;99.90
38941;DHT22;43236;47.208;7.518;2022-07-23T03:57:34;23.70;99.90
38941;DHT22;43236;47.208;7.518;2022-07-23T04:00:21;23.60;99.90
38941;DHT22;43236;47.208;7.518;2022-07-23T04:03:08;23.60;99.90
38941;DHT22;43236;47.208;7.518;2022-07-23T04:05:55;23.50;99.90
38941;DHT22;43236;47.208;7.518;2022-07-23T04:08:42;23.50;99.90
38941;DHT22;43236;47.208;7.518;2022-07-23T04:11:30;23.60;99.90
38941;DHT22;43236;47.208;7.518;2022-07-23T04:14:18;23.60;99.90
38941;DHT22;43236;47.208;7.518;2022-07-23T04:17:05;23.50;99.90
38941;DHT22;43236;47.208;7.518;2022-07-23T04:19:52;23.40;99.90
38941;DHT22;43236;47.208;7.518;2022-07-23T04:22:39;23.40;99.90
38941;DHT22;43236;47.208;7.518;2022-07-23T04:25:26;23.30;99.90
38941;DHT22;43236;47.208;7.518;2022-07-23T04:28:14;23.30;99.90
38941;DHT22;43236;47.208;7.518;2022-07-23T04:31:01;23.30;99.90
38941;DHT22;43236;47.208;7.518;2022-07-23T04:33:48;23.30;99.90
38941;DHT22;43236;47.208;7.518;2022-07-23T04:36:35;23.40;99.90
38941;DHT22;43236;47.208;7.518;2022-07-23T04:39:22;23.40;99.90
38941;DHT22;43236;47.208;7.518;2022-07-23T04:42:10;23.40;99.90
38941;DHT22;43236;47.208;7.518;2022-07-23T04:44:58;23.50;99.90
38941;DHT22;43236;47.208;7.518;2022-07-23T04:47:46;23.40;99.90
38941;DHT22;43236;47.208;7.518;2022-07-23T04:50:33;23.50;99.90
38941;DHT22;43236;47.208;7.518;2022-07-23T04:53:20;23.50;99.90
38941;DHT22;43236;47.208;7.518;2022-07-23T04:56:07;23.50;99.90
38941;DHT22;43236;47.208;7.518;2022-07-23T04:58:54;23.50;99.90
38941;DHT22;43236;47.208;7.518;2022-07-23T05:01:42;23.60;99.90
38941;DHT22;43236;47.208;7.518;2022-07-23T05:04:30;23.60;99.90
38941;DHT22;43236;47.208;7.518;2022-07-23T05:07:17;23.60;99.90
38941;DHT22;43236;47.208;7.518;2022-07-23T05:10:05;23.60;99.90
38941;DHT22;43236;47.208;7.518;2022-07-23T05:12:52;23.60;99.90
38941;DHT22;43236;47.208;7.518;2022-07-23T05:15:39;23.60;99.90
38941;DHT22;43236;47.208;7.518;2022-07-23T05:18:28;23.60;99.90
38941;DHT22;43236;47.208;7.518;2022-07-23T05:21:15;23.50;99.90
38941;DHT22;43236;47.208;7.518;2022-07-23T05:24:02;23.50;99.90
38941;DHT22;43236;47.208;7.518;2022-07-23T05:26:49;23.40;99.90
38941;DHT22;43236;47.208;7.518;2022-07-23T05:29:36;23.50;99.90
38941;DHT22;43236;47.208;7.518;2022-07-23T05:32:23;23.40;99.90
38941;DHT22;43236;47.208;7.518;2022-07-23T05:35:12;23.50;99.90
38941;DHT22;43236;47.208;7.518;2022-07-23T05:37:59;23.50;99.90
38941;DHT22;43236;47.208;7.518;2022-07-23T05:40:46;23.50;99.90
38941;DHT22;43236;47.208;7.518;2022-07-23T05:43:33;23.50;99.90
38941;DHT22;43236;47.208;7.518;2022-07-23T05:46:20;23.60;99.90
38941;DHT22;43236;47.208;7.518;2022-07-23T05:49:07;23.50;99.90
38941;DHT22;43236;47.208;7.518;2022-07-23T05:51:56;23.50;99.90
38941;DHT22;43236;47.208;7.518;2022-07-23T05:54:43;23.50;99.90
38941;DHT22;43236;47.208;7.518;2022-07-23T05:57:31;23.50;99.90
38941;DHT22;43236;47.208;7.518;2022-07-23T06:00:18;23.50;99.90
38941;DHT22;43236;47.208;7.518;2022-07-23T06:03:05;23.50;99.90
38941;DHT22;43236;47.208;7.518;2022-07-23T06:05:52;23.50;99.90
38941;DHT22;43236;47.208;7.518;2022-07-23T06:08:40;23.50;99.90
38941;DHT22;43236;47.208;7.518;2022-07-23T06:11:27;23.50;99.90
38941;DHT22;43236;47.208;7.518;2022-07-23T06:14:15;23.50;99.90
38941;DHT22;43236;47.208;7.518;2022-07-23T06:17:02;23.50;99.90
38941;DHT22;43236;47.208;7.518;2022-07-23T06:19:49;23.50;99.90
38941;DHT22;43236;47.208;7.518;2022-07-23T06:22:37;23.50;99.90
38941;DHT22;43236;47.208;7.518;2022-07-23T06:25:26;23.50;99.90
38941;DHT22;43236;47.208;7.518;2022-07-23T06:28:13;23.50;99.90
38941;DHT22;43236;47.208;7.518;2022-07-23T06:31:01;23.50;99.90
38941;DHT22;43236;47.208;7.518;2022-07-23T06:33:48;23.40;99.90
38941;DHT22;43236;47.208;7.518;2022-07-23T06:36:35;23.40;99.90
38941;DHT22;43236;47.208;7.518;2022-07-23T06:39:22;23.40;99.90
38941;DHT22;43236;47.208;7.518;2022-07-23T06:42:11;23.50;99.90
38941;DHT22;43236;47.208;7.518;2022-07-23T06:44:58;23.40;99.90
38941;DHT22;43236;47.208;7.518;2022-07-23T06:47:45;23.40;99.90
38941;DHT22;43236;47.208;7.518;2022-07-23T06:50:32;23.50;99.90
38941;DHT22;43236;47.208;7.518;2022-07-23T06:53:20;23.50;99.90
38941;DHT22;43236;47.208;7.518;2022-07-23T06:56:07;23.60;99.90
38941;DHT22;43236;47.208;7.518;2022-07-23T06:58:56;23.60;99.90
38941;DHT22;43236;47.208;7.518;2022-07-23T07:01:43;23.50;99.90
38941;DHT22;43236;47.208;7.518;2022-07-23T07:04:30;23.60;99.90
38941;DHT22;43236;47.208;7.518;2022-07-23T07:07:17;23.60;99.90
38941;DHT22;43236;47.208;7.518;2022-07-23T07:10:05;23.60;99.90
38941;DHT22;43236;47.208;7.518;2022-07-23T07:12:52;23.60;99.90
38941;DHT22;43236;47.208;7.518;2022-07-23T07:15:41;23.60;99.90
38941;DHT22;43236;47.208;7.518;2022-07-23T07:18:28;23.60;99.90
38941;DHT22;43236;47.208;7.518;2022-07-23T07:21:15;23.60;99.90
38941;DHT22;43236;47.208;7.518;2022-07-23T07:24:02;23.60;99.90
38941;DHT22;43236;47.208;7.518;2022-07-23T07:26:50;23.60;99.90
38941;DHT22;43236;47.208;7.518;2022-07-23T07:29:37;23.60;99.90
38941;DHT22;43236;47.208;7.518;2022-07-23T07:32:25;23.70;99.90
38941;DHT22;43236;47.208;7.518;2022-07-23T07:35:12;23.70;99.90
38941;DHT22;43236;47.208;7.518;2022-07-23T07:38:00;23.70;99.90
38941;DHT22;43236;47.208;7.518;2022-07-23T07:40:47;23.80;99.90
38941;DHT22;43236;47.208;7.518;2022-07-23T07:43:34;23.90;99.90
38941;DHT22;43236;47.208;7.518;2022-07-23T07:46:21;23.90;99.90
38941;DHT22;43236;47.208;7.518;2022-07-23T07:49:11;24.00;99.90
38941;DHT22;43236;47.208;7.518;2022-07-23T07:51:58;24.10;99.90
38941;DHT22;43236;47.208;7.518;2022-07-23T07:54:45;24.10;99.90
38941;DHT22;43236;47.208;7.518;2022-07-23T07:57:32;24.20;99.90
38941;DHT22;43236;47.208;7.518;2022-07-23T08:00:20;24.40;99.90
38941;DHT22;43236;47.208;7.518;2022-07-23T08:03:07;24.40;99.90
38941;DHT22;43236;47.208;7.518;2022-07-23T08:05:55;24.40;99.90
38941;DHT22;43236;47.208;7.518;2022-07-23T08:08:42;24.40;99.90
38941;DHT22;43236;47.208;7.518;2022-07-23T08:11:29;24.40;99.90
38941;DHT22;43236;47.208;7.518;2022-07-23T08:14:17;24.40;99.90
38941;DHT22;43236;47.208;7.518;2022-07-23T08:17:04;24.40;99.90
38941;DHT22;43236;47.208;7.518;2022-07-23T08:19:51;24.40;99.90
38941;DHT22;43236;47.208;7.518;2022-07-23T08:22:47;24.40;99.90
38941;DHT22;43236;47.208;7.518;2022-07-23T08:25:38;24.30;99.90
38941;DHT22;43236;47.208;7.518;2022-07-23T08:28:25;24.20;99.90
38941;DHT22;43236;47.208;7.518;2022-07-23T08:31:12;24.10;99.90
38941;DHT22;43236;47.208;7.518;2022-07-23T08:34:01;24.10;99.90
38941;DHT22;43236;47.208;7.518;2022-07-23T08:36:48;24.10;99.90
38941;DHT22;43236;47.208;7.518;2022-07-23T08:39:37;24.00;99.90
38941;DHT22;43236;47.208;7.518;2022-07-23T08:42:24;24.00;99.90
38941;DHT22;43236;47.208;7.518;2022-07-23T08:45:13;24.00;99.90
38941;DHT22;43236;47.208;7.518;2022-07-23T08:48:03;24.00;99.90
38941;DHT22;43236;47.208;7.518;2022-07-23T08:50:52;24.10;99.90
38941;DHT22;43236;47.208;7.518;2022-07-23T08:53:41;24.20;99.90
38941;DHT22;43236;47.208;7.518;2022-07-23T08:56:30;24.30;99.90
38941;DHT22;43236;47.208;7.518;2022-07-23T08:59:17;24.40;99.90
38941;DHT22;43236;47.208;7.518;2022-07-23T09:02:04;24.60;99.90
38941;DHT22;43236;47.208;7.518;2022-07-23T09:04:51;24.60;99.90
38941;DHT22;43236;47.208;7.518;2022-07-23T09:08:05;24.60;99.90
38941;DHT22;43236;47.208;7.518;2022-07-23T09:10:55;24.60;99.90
38941;DHT22;43236;47.208;7.518;2022-07-23T09:13:46;24.60;99.90
38941;DHT22;43236;47.208;7.518;2022-07-23T09:16:34;24.60;99.90
38941;DHT22;43236;47.208;7.518;2022-07-23T09:19:27;24.60;99.90
38941;DHT22;43236;47.208;7.518;2022-07-23T09:22:19;24.70;99.90
38941;DHT22;43236;47.208;7.518;2022-07-23T09:25:09;24.70;99.90
38941;DHT22;43236;47.208;7.518;2022-07-23T09:27:59;24.60;99.90
38941;DHT22;43236;47.208;7.518;2022-07-23T09:30:51;24.60;99.90
38941;DHT22;43236;47.208;7.518;2022-07-23T09:33:38;24.70;99.90
38941;DHT22;43236;47.208;7.518;2022-07-23T09:36:28;24.70;99.90
38941;DHT22;43236;47.208;7.518;2022-07-23T09:39:24;24.70;99.90
38941;DHT22;43236;47.208;7.518;2022-07-23T09:42:17;24.70;99.90
38941;DHT22;43236;47.208;7.518;2022-07-23T09:45:10;24.70;99.90
38941;DHT22;43236;47.208;7.518;2022-07-23T09:48:11;24.70;99.90
38941;DHT22;43236;47.208;7.518;2022-07-23T09:51:02;24.80;99.90
38941;DHT22;43236;47.208;7.518;2022-07-23T09:53:49;24.90;99.90
38941;DHT22;43236;47.208;7.518;2022-07-23T09:56:36;25.00;99.90
38941;DHT22;43236;47.208;7.518;2022-07-23T09:59:26;25.20;99.90
38941;DHT22;43236;47.208;7.518;2022-07-23T10:02:13;25.30;99.90
38941;DHT22;43236;47.208;7.518;2022-07-23T10:05:03;25.40;99.90
38941;DHT22;43236;47.208;7.518;2022-07-23T10:07:51;25.50;99.90
38941;DHT22;43236;47.208;7.518;2022-07-23T10:10:39;25.60;99.90
38941;DHT22;43236;47.208;7.518;2022-07-23T10:13:27;25.60;99.90
38941;DHT22;43236;47.208;7.518;2022-07-23T10:16:32;25.60;99.90
38941;DHT22;43236;47.208;7.518;2022-07-23T10:19:19;25.50;99.90
38941;DHT22;43236;47.208;7.518;2022-07-23T10:22:09;25.50;99.90
38941;DHT22;43236;47.208;7.518;2022-07-23T10:25:03;25.50;99.90
38941;DHT22;43236;47.208;7.518;2022-07-23T10:28:12;25.50;99.90
38941;DHT22;43236;47.208;7.518;2022-07-23T10:31:13;25.50;99.90
38941;DHT22;43236;47.208;7.518;2022-07-23T10:34:20;25.60;99.90
38941;DHT22;43236;47.208;7.518;2022-07-23T10:37:17;25.70;99.90
38941;DHT22;43236;47.208;7.518;2022-07-23T10:40:11;25.90;99.90
38941;DHT22;43236;47.208;7.518;2022-07-23T10:42:59;26.00;99.90
38941;DHT22;43236;47.208;7.518;2022-07-23T10:45:48;26.10;99.90
38941;DHT22;43236;47.208;7.518;2022-07-23T10:48:36;26.20;99.90
38941;DHT22;43236;47.208;7.518;2022-07-23T10:51:23;26.30;99.90
38941;DHT22;43236;47.208;7.518;2022-07-23T10:54:21;26.30;99.90
38941;DHT22;43236;47.208;7.518;2022-07-23T10:57:09;26.40;99.90
38941;DHT22;43236;47.208;7.518;2022-07-23T11:00:14;26.50;99.90
38941;DHT22;43236;47.208;7.518;2022-07-23T11:03:04;26.50;99.90
38941;DHT22;43236;47.208;7.518;2022-07-23T11:05:52;26.60;99.90
38941;DHT22;43236;47.208;7.518;2022-07-23T11:08:39;26.60;99.90
38941;DHT22;43236;47.208;7.518;2022-07-23T11:11:28;26.60;99.90
38941;DHT22;43236;47.208;7.518;2022-07-23T11:14:15;26.60;99.90
38941;DHT22;43236;47.208;7.518;2022-07-23T11:17:22;26.60;99.90
38941;DHT22;43236;47.208;7.518;2022-07-23T11:20:19;26.70;99.90
38941;DHT22;43236;47.208;7.518;2022-07-23T11:23:07;26.80;99.90
38941;DHT22;43236;47.208;7.518;2022-07-23T11:25:54;26.90;99.90
38941;DHT22;43236;47.208;7.518;2022-07-23T11:28:42;27.00;99.90
38941;DHT22;43236;47.208;7.518;2022-07-23T11:31:30;27.00;99.90
38941;DHT22;43236;47.208;7.518;2022-07-23T11:34:30;27.20;99.90
38941;DHT22;43236;47.208;7.518;2022-07-23T11:37:36;27.30;99.90
38941;DHT22;43236;47.208;7.518;2022-07-23T11:40:24;27.40;99.90
38941;DHT22;43236;47.208;7.518;2022-07-23T11:43:13;27.40;99.90
38941;DHT22;43236;47.208;7.518;2022-07-23T11:46:02;27.30;99.90
38941;DHT22;43236;47.208;7.518;2022-07-23T11:49:01;27.30;99.90
38941;DHT22;43236;47.208;7.518;2022-07-23T11:52:02;27.20;99.90
38941;DHT22;43236;47.208;7.518;2022-07-23T11:54:52;27.20;99.90
38941;DHT22;43236;47.208;7.518;2022-07-23T11:57:41;27.30;99.90
38941;DHT22;43236;47.208;7.518;2022-07-23T12:00:30;27.20;99.90
38941;DHT22;43236;47.208;7.518;2022-07-23T12:03:18;27.20;99.90
38941;DHT22;43236;47.208;7.518;2022-07-23T12:06:05;27.10;99.90
38941;DHT22;43236;47.208;7.518;2022-07-23T12:08:53;27.10;99.90
38941;DHT22;43236;47.208;7.518;2022-07-23T12:11:56;27.10;99.90
38941;DHT22;43236;47.208;7.518;2022-07-23T12:14:52;27.20;99.90
38941;DHT22;43236;47.208;7.518;2022-07-23T12:17:41;27.20;99.90
38941;DHT22;43236;47.208;7.518;2022-07-23T12:20:32;27.30;99.90
38941;DHT22;43236;47.208;7.518;2022-07-23T12:23:21;27.30;99.90
38941;DHT22;43236;47.208;7.518;2022-07-23T12:26:09;27.40;99.90
38941;DHT22;43236;47.208;7.518;2022-07-23T12:28:57;27.40;99.90
38941;DHT22;43236;47.208;7.518;2022-07-23T12:31:44;27.50;99.90
38941;DHT22;43236;47.208;7.518;2022-07-23T12:34:31;27.50;99.90
38941;DHT22;43236;47.208;7.518;2022-07-23T12:37:30;27.60;99.90
38941;DHT22;43236;47.208;7.518;2022-07-23T12:40:20;27.60;99.90
38941;DHT22;43236;47.208;7.518;2022-07-23T12:43:09;27.60;99.90
38941;DHT22;43236;47.208;7.518;2022-07-23T12:46:02;27.50;99.90
38941;DHT22;43236;47.208;7.518;2022-07-23T12:48:52;27.50;99.90
38941;DHT22;43236;47.208;7.518;2022-07-23T12:51:39;27.50;99.90
38941;DHT22;43236;47.208;7.518;2022-07-23T12:54:28;27.60;99.90
38941;DHT22;43236;47.208;7.518;2022-07-23T12:57:15;27.50;99.90
38941;DHT22;43236;47.208;7.518;2022-07-23T13:00:08;27.60;99.90
38941;DHT22;43236;47.208;7.518;2022-07-23T13:02:55;27.50;99.90
38941;DHT22;43236;47.208;7.518;2022-07-23T13:05:42;27.60;99.90
38941;DHT22;43236;47.208;7.518;2022-07-23T13:08:32;27.60;99.90
38941;DHT22;43236;47.208;7.518;2022-07-23T13:11:21;27.60;99.90
38941;DHT22;43236;47.208;7.518;2022-07-23T13:14:08;27.70;99.90
38941;DHT22;43236;47.208;7.518;2022-07-23T13:16:55;27.80;99.90
38941;DHT22;43236;47.208;7.518;2022-07-23T13:19:42;27.90;99.90
38941;DHT22;43236;47.208;7.518;2022-07-23T13:22:29;28.00;99.90
38941;DHT22;43236;47.208;7.518;2022-07-23T13:25:17;28.00;99.90
38941;DHT22;43236;47.208;7.518;2022-07-23T13:28:05;28.10;99.90
38941;DHT22;43236;47.208;7.518;2022-07-23T13:30:52;28.20;99.90
38941;DHT22;43236;47.208;7.518;2022-07-23T13:33:40;28.30;99.90
38941;DHT22;43236;47.208;7.518;2022-07-23T13:36:27;28.40;99.90
38941;DHT22;43236;47.208;7.518;2022-07-23T13:39:14;28.50;99.90
38941;DHT22;43236;47.208;7.518;2022-07-23T13:42:01;28.50;99.90
38941;DHT22;43236;47.208;7.518;2022-07-23T13:44:49;28.50;99.70
38941;DHT22;43236;47.208;7.518;2022-07-23T13:47:37;28.50;99.90
38941;DHT22;43236;47.208;7.518;2022-07-23T13:50:24;28.50;99.10
38941;DHT22;43236;47.208;7.518;2022-07-23T13:53:14;28.50;99.90
38941;DHT22;43236;47.208;7.518;2022-07-23T13:56:01;28.60;98.30
38941;DHT22;43236;47.208;7.518;2022-07-23T13:58:48;28.60;98.10
38941;DHT22;43236;47.208;7.518;2022-07-23T14:01:37;28.60;97.80
38941;DHT22;43236;47.208;7.518;2022-07-23T14:04:24;28.60;99.40
38941;DHT22;43236;47.208;7.518;2022-07-23T14:07:11;28.70;97.80
38941;DHT22;43236;47.208;7.518;2022-07-23T14:09:58;28.70;98.80
38941;DHT22;43236;47.208;7.518;2022-07-23T14:12:46;28.80;99.20
38941;DHT22;43236;47.208;7.518;2022-07-23T14:15:34;28.80;98.50
38941;DHT22;43236;47.208;7.518;2022-07-23T14:18:22;28.80;97.40
38941;DHT22;43236;47.208;7.518;2022-07-23T14:21:09;28.70;97.70
38941;DHT22;43236;47.208;7.518;2022-07-23T14:23:56;28.60;98.10
38941;DHT22;43236;47.208;7.518;2022-07-23T14:26:43;28.60;98.10
38941;DHT22;43236;47.208;7.518;2022-07-23T14:29:30;28.60;98.20
38941;DHT22;43236;47.208;7.518;2022-07-23T14:32:18;28.60;98.20
38941;DHT22;43236;47.208;7.518;2022-07-23T14:35:07;28.60;98.30
38941;DHT22;43236;47.208;7.518;2022-07-23T14:37:54;28.50;97.70
38941;DHT22;43236;47.208;7.518;2022-07-23T14:40:42;28.40;98.50
38941;DHT22;43236;47.208;7.518;2022-07-23T14:43:29;28.40;98.70
38941;DHT22;43236;47.208;7.518;2022-07-23T14:46:16;28.40;98.60
38941;DHT22;43236;47.208;7.518;2022-07-23T14:49:03;28.40;98.70
38941;DHT22;43236;47.208;7.518;2022-07-23T14:51:52;28.40;97.10
38941;DHT22;43236;47.208;7.518;2022-07-23T14:54:39;28.50;97.40
38941;DHT22;43236;47.208;7.518;2022-07-23T14:57:26;28.40;97.70
38941;DHT22;43236;47.208;7.518;2022-07-23T15:00:14;28.50;97.50
38941;DHT22;43236;47.208;7.518;2022-07-23T15:03:01;28.40;97.50
38941;DHT22;43236;47.208;7.518;2022-07-23T15:05:48;28.50;98.30
38941;DHT22;43236;47.208;7.518;2022-07-23T15:08:37;28.60;98.40
38941;DHT22;43236;47.208;7.518;2022-07-23T15:11:24;28.60;97.30
38941;DHT22;43236;47.208;7.518;2022-07-23T15:14:12;28.70;98.10
38941;DHT22;43236;47.208;7.518;2022-07-23T15:16:59;28.70;96.30
38941;DHT22;43236;47.208;7.518;2022-07-23T15:19:46;28.60;97.00
38941;DHT22;43236;47.208;7.518;2022-07-23T15:22:33;28.80;97.40
38941;DHT22;43236;47.208;7.518;2022-07-23T15:25:22;28.70;96.20
38941;DHT22;43236;47.208;7.518;2022-07-23T15:28:09;28.70;95.10
38941;DHT22;43236;47.208;7.518;2022-07-23T15:30:56;28.70;92.50
38941;DHT22;43236;47.208;7.518;2022-07-23T15:33:43;28.70;91.10
38941;DHT22;43236;47.208;7.518;2022-07-23T15:36:30;28.70;90.10
38941;DHT22;43236;47.208;7.518;2022-07-23T15:39:17;28.70;90.10
38941;DHT22;43236;47.208;7.518;2022-07-23T15:42:06;28.70;89.70
38941;DHT22;43236;47.208;7.518;2022-07-23T15:44:53;28.70;88.90
38941;DHT22;43236;47.208;7.518;2022-07-23T15:47:40;28.70;88.20
38941;DHT22;43236;47.208;7.518;2022-07-23T15:50:27;28.70;86.20
38941;DHT22;43236;47.208;7.518;2022-07-23T15:53:15;28.80;86.10
38941;DHT22;43236;47.208;7.518;2022-07-23T15:56:03;28.90;87.10
38941;DHT22;43236;47.208;7.518;2022-07-23T15:58:52;29.00;88.10
38941;DHT22;43236;47.208;7.518;2022-07-23T16:01:39;29.10;85.50
38941;DHT22;43236;47.208;7.518;2022-07-23T16:04:26;29.10;84.40
38941;DHT22;43236;47.208;7.518;2022-07-23T16:07:13;29.20;82.90
38941;DHT22;43236;47.208;7.518;2022-07-23T16:10:00;29.30;81.50
38941;DHT22;43236;47.208;7.518;2022-07-23T16:12:47;29.40;79.70
38941;DHT22;43236;47.208;7.518;2022-07-23T16:15:36;29.40;78.30
38941;DHT22;43236;47.208;7.518;2022-07-23T16:18:24;29.40;80.10
38941;DHT22;43236;47.208;7.518;2022-07-23T16:21:11;29.30;79.30
38941;DHT22;43236;47.208;7.518;2022-07-23T16:23:58;29.20;78.80
38941;DHT22;43236;47.208;7.518;2022-07-23T16:26:45;29.10;77.30
38941;DHT22;43236;47.208;7.518;2022-07-23T16:29:33;29.00;79.00
38941;DHT22;43236;47.208;7.518;2022-07-23T16:32:21;28.90;78.50
38941;DHT22;43236;47.208;7.518;2022-07-23T16:35:08;28.80;78.70
38941;DHT22;43236;47.208;7.518;2022-07-23T16:37:56;28.70;78.50
38941;DHT22;43236;47.208;7.518;2022-07-23T16:40:45;28.70;77.90
38941;DHT22;43236;47.208;7.518;2022-07-23T16:43:33;28.60;77.80
38941;DHT22;43236;47.208;7.518;2022-07-23T16:46:20;28.60;77.20
38941;DHT22;43236;47.208;7.518;2022-07-23T16:49:09;28.60;77.60
38941;DHT22;43236;47.208;7.518;2022-07-23T16:51:56;28.70;77.20
38941;DHT22;43236;47.208;7.518;2022-07-23T16:54:43;28.80;77.30
38941;DHT22;43236;47.208;7.518;2022-07-23T16:57:30;29.00;76.30
38941;DHT22;43236;47.208;7.518;2022-07-23T17:00:17;29.10;74.90
38941;DHT22;43236;47.208;7.518;2022-07-23T17:03:04;29.30;77.40
38941;DHT22;43236;47.208;7.518;2022-07-23T17:05:52;29.50;75.00
38941;DHT22;43236;47.208;7.518;2022-07-23T17:08:40;29.70;74.70
38941;DHT22;43236;47.208;7.518;2022-07-23T17:11:27;29.70;74.90
38941;DHT22;43236;47.208;7.518;2022-07-23T17:14:14;29.80;74.60
38941;DHT22;43236;47.208;7.518;2022-07-23T17:17:02;31.00;74.20
38941;DHT22;43236;47.208;7.518;2022-07-23T17:19:49;31.70;72.20
38941;DHT22;43236;47.208;7.518;2022-07-23T17:22:37;31.30;70.20
38941;DHT22;43236;47.208;7.518;2022-07-23T17:25:25;30.90;74.30
38941;DHT22;43236;47.208;7.518;2022-07-23T17:28:13;31.10;73.50
38941;DHT22;43236;47.208;7.518;2022-07-23T17:31:00;32.00;70.20
38941;DHT22;43236;47.208;7.518;2022-07-23T17:33:47;32.80;69.00
38941;DHT22;43236;47.208;7.518;2022-07-23T17:36:35;33.30;66.80
38941;DHT22;43236;47.208;7.518;2022-07-23T17:39:23;33.60;65.40
38941;DHT22;43236;47.208;7.518;2022-07-23T17:42:10;33.80;63.10